createdAt,value
2018-11-10T00:00:16.423Z,1008.24
2018-11-10T00:01:25.873Z,1008.26
2018-11-10T00:02:35.822Z,1008.29
2018-11-10T00:03:44.992Z,1008.2
2018-11-10T00:04:54.679Z,1008.22
2018-11-10T00:06:04.647Z,1008.21
2018-11-10T00:07:14.598Z,1008.17
2018-11-10T00:08:24.429Z,1008.13
2018-11-10T00:09:34.729Z,1008.12
2018-11-10T00:10:44.411Z,1008.17
2018-11-10T00:11:54.101Z,1008.2
2018-11-10T00:13:03.535Z,1008.21
2018-11-10T00:14:12.959Z,1008.24
2018-11-10T00:15:22.123Z,1008.2
2018-11-10T00:16:31.873Z,1008.15
2018-11-10T00:17:42.443Z,1008.18
2018-11-10T00:18:51.907Z,1008.18
2018-11-10T00:20:01.589Z,1008.14
2018-11-10T00:21:10.772Z,1008.09
2018-11-10T00:22:20.209Z,1008.1
2018-11-10T00:23:29.633Z,1008.12
2018-11-10T00:24:39.358Z,1008.11
2018-11-10T00:25:49.090Z,1008.07
2018-11-10T00:26:59.040Z,1008.1
2018-11-10T00:28:08.740Z,1008.06
2018-11-10T00:29:18.444Z,1008.1
2018-11-10T00:30:28.148Z,1008.08
2018-11-10T00:31:37.833Z,1008.04
2018-11-10T00:32:47.779Z,1008.08
2018-11-10T00:33:57.473Z,1008.09
2018-11-10T00:35:06.921Z,1008.1
2018-11-10T00:36:16.885Z,1008.03
2018-11-10T00:37:26.598Z,1007.96
2018-11-10T00:38:36.052Z,1007.94
2018-11-10T00:39:46.045Z,1007.97
2018-11-10T00:40:55.218Z,1007.88
2018-11-10T00:42:04.914Z,1007.87
2018-11-10T00:43:14.610Z,1007.84
2018-11-10T00:44:24.043Z,1007.78
2018-11-10T00:45:33.995Z,1007.84
2018-11-10T00:46:43.708Z,1007.85
2018-11-10T00:47:53.160Z,1007.87
2018-11-10T00:49:02.851Z,1007.89
2018-11-10T00:50:12.543Z,1007.91
2018-11-10T00:51:21.982Z,1007.91
2018-11-10T00:52:31.935Z,1007.9
2018-11-10T00:53:41.868Z,1007.91
2018-11-10T00:54:51.312Z,1007.89
2018-11-10T00:56:00.735Z,1007.84
2018-11-10T00:57:10.668Z,1007.82
2018-11-10T00:58:19.830Z,1007.82
2018-11-10T00:59:29.526Z,1007.78
2018-11-10T01:00:38.689Z,1007.76
2018-11-10T01:01:48.378Z,1007.8
2018-11-10T01:02:58.332Z,1007.83
2018-11-10T01:04:08.301Z,1007.78
2018-11-10T01:05:18.236Z,1007.77
2018-11-10T01:06:27.911Z,1007.74
2018-11-10T01:07:37.605Z,1007.74
2018-11-10T01:08:47.551Z,1007.74
2018-11-10T01:09:56.771Z,1007.71
2018-11-10T01:11:06.772Z,1007.67
2018-11-10T01:12:15.962Z,1007.7
2018-11-10T01:13:25.913Z,1007.65
2018-11-10T01:14:35.855Z,1007.65
2018-11-10T01:15:45.790Z,1007.65
2018-11-10T01:16:55.485Z,1007.67
2018-11-10T01:18:05.421Z,1007.66
2018-11-10T01:19:14.865Z,1007.66
2018-11-10T01:20:24.816Z,1007.67
2018-11-10T01:21:34.753Z,1007.69
2018-11-10T01:22:44.702Z,1007.69
2018-11-10T01:23:54.401Z,1007.73
2018-11-10T01:25:04.092Z,1007.72
2018-11-10T01:26:13.797Z,1007.72
2018-11-10T01:27:23.479Z,1007.72
2018-11-10T01:28:33.195Z,1007.72
2018-11-10T01:29:43.143Z,1007.77
2018-11-10T01:30:53.125Z,1007.82
2018-11-10T01:32:02.556Z,1007.84
2018-11-10T01:33:12.253Z,1007.84
2018-11-10T01:34:21.949Z,1007.81
2018-11-10T01:35:31.664Z,1007.77
2018-11-10T01:36:41.622Z,1007.8
2018-11-10T01:37:51.590Z,1007.75
2018-11-10T01:39:01.289Z,1007.78
2018-11-10T01:40:10.990Z,1007.77
2018-11-10T01:41:20.179Z,1007.72
2018-11-10T01:42:30.137Z,1007.69
2018-11-10T01:43:39.569Z,1007.64
2018-11-10T01:44:49.493Z,1007.66
2018-11-10T01:45:58.694Z,1007.59
2018-11-10T01:47:08.389Z,1007.55
2018-11-10T01:48:18.077Z,1007.49
2018-11-10T01:49:28.043Z,1007.53
2018-11-10T01:50:38.014Z,1007.49
2018-11-10T01:51:47.958Z,1007.52
2018-11-10T01:52:57.654Z,1007.52
2018-11-10T01:54:07.339Z,1007.48
2018-11-10T01:55:17.021Z,1007.43
2018-11-10T01:56:26.463Z,1007.45
2018-11-10T01:57:36.154Z,1007.39
2018-11-10T01:58:46.095Z,1007.38
2018-11-10T01:59:55.782Z,1007.39
2018-11-10T02:01:05.745Z,1007.41
2018-11-10T02:02:15.443Z,1007.38
2018-11-10T02:03:24.881Z,1007.4
2018-11-10T02:04:34.813Z,1007.42
2018-11-10T02:05:44.489Z,1007.42
2018-11-10T02:06:54.443Z,1007.42
2018-11-10T02:08:04.115Z,1007.4
2018-11-10T02:09:13.808Z,1007.37
2018-11-10T02:10:23.259Z,1007.36
2018-11-10T02:11:33.206Z,1007.31
2018-11-10T02:12:42.883Z,1007.32
2018-11-10T02:13:52.820Z,1007.31
2018-11-10T02:15:02.252Z,1007.31
2018-11-10T02:16:11.683Z,1007.29
2018-11-10T02:17:21.117Z,1007.29
2018-11-10T02:18:30.590Z,1007.31
2018-11-10T02:19:40.287Z,1007.33
2018-11-10T02:20:49.714Z,1007.26
2018-11-10T02:21:59.151Z,1007.27
2018-11-10T02:23:08.839Z,1007.24
2018-11-10T02:24:18.289Z,1007.29
2018-11-10T02:25:27.721Z,1007.26
2018-11-10T02:26:37.683Z,1007.26
2018-11-10T02:27:47.115Z,1007.25
2018-11-10T02:28:56.806Z,1007.28
2018-11-10T02:30:06.492Z,1007.29
2018-11-10T02:31:16.198Z,1007.22
2018-11-10T02:32:25.629Z,1007.26
2018-11-10T02:33:35.323Z,1007.26
2018-11-10T02:34:44.750Z,1007.23
2018-11-10T02:35:54.690Z,1007.24
2018-11-10T02:37:04.128Z,1007.22
2018-11-10T02:38:14.087Z,1007.24
2018-11-10T02:39:23.843Z,1007.2
2018-11-10T02:40:33.797Z,1007.2
2018-11-10T02:41:43.219Z,1007.18
2018-11-10T02:42:52.950Z,1007.21
2018-11-10T02:44:02.638Z,1007.2
2018-11-10T02:45:12.065Z,1007.15
2018-11-10T02:46:20.986Z,1007.17
2018-11-10T02:47:30.415Z,1007.13
2018-11-10T02:48:40.115Z,1007.12
2018-11-10T02:49:49.797Z,1007.15
2018-11-10T02:50:59.499Z,1007.19
2018-11-10T02:52:08.923Z,1007.2
2018-11-10T02:53:18.365Z,1007.21
2018-11-10T02:54:28.314Z,1007.17
2018-11-10T02:55:38.262Z,1007.17
2018-11-10T02:56:48.206Z,1007.19
2018-11-10T02:57:57.893Z,1007.18
2018-11-10T02:59:07.066Z,1007.2
2018-11-10T03:00:16.753Z,1007.17
2018-11-10T03:01:26.436Z,1007.14
2018-11-10T03:02:36.111Z,1007.11
2018-11-10T03:03:46.061Z,1007.1
2018-11-10T03:04:56.000Z,1007.1
2018-11-10T03:06:05.685Z,1007.08
2018-11-10T03:07:15.627Z,1007.13
2018-11-10T03:08:25.323Z,1007.1
2018-11-10T03:09:35.270Z,1007.11
2018-11-10T03:10:45.009Z,1007.07
2018-11-10T03:11:55.550Z,1007.07
2018-11-10T03:13:05.494Z,1007.06
2018-11-10T03:14:15.453Z,1007.09
2018-11-10T03:15:24.889Z,1007.06
2018-11-10T03:16:34.700Z,1007.03
2018-11-10T03:17:44.465Z,1007.04
2018-11-10T03:18:53.624Z,1007.03
2018-11-10T03:20:03.314Z,1006.99
2018-11-10T03:21:12.768Z,1007.02
2018-11-10T03:22:22.443Z,1006.97
2018-11-10T03:23:32.126Z,1007.02
2018-11-10T03:24:42.060Z,1006.98
2018-11-10T03:25:52.008Z,1007.02
2018-11-10T03:27:01.954Z,1006.96
2018-11-10T03:28:11.630Z,1006.97
2018-11-10T03:29:21.320Z,1006.98
2018-11-10T03:30:31.006Z,1006.98
2018-11-10T03:31:40.691Z,1006.98
2018-11-10T03:32:49.870Z,1007.02
2018-11-10T03:33:59.312Z,1006.99
2018-11-10T03:35:08.731Z,1006.98
2018-11-10T03:36:18.428Z,1007.02
2018-11-10T03:37:28.375Z,1007.02
2018-11-10T03:38:37.304Z,1007.01
2018-11-10T03:39:47.253Z,1007.02
2018-11-10T03:40:57.210Z,1007.01
2018-11-10T03:42:06.890Z,1007
2018-11-10T03:43:16.310Z,1006.98
2018-11-10T03:44:25.743Z,1006.97
2018-11-10T03:45:35.166Z,1006.89
2018-11-10T03:46:45.133Z,1006.93
2018-11-10T03:47:54.802Z,1006.93
2018-11-10T03:49:04.484Z,1006.93
2018-11-10T03:50:13.933Z,1006.92
2018-11-10T03:51:23.889Z,1006.93
2018-11-10T03:52:33.573Z,1006.94
2018-11-10T03:53:43.262Z,1006.91
2018-11-10T03:54:52.955Z,1006.91
2018-11-10T03:56:02.646Z,1006.91
2018-11-10T03:57:12.332Z,1006.91
2018-11-10T03:58:21.762Z,1006.86
2018-11-10T03:59:30.929Z,1006.83
2018-11-10T04:00:40.876Z,1006.86
2018-11-10T04:01:50.303Z,1006.83
2018-11-10T04:03:00.002Z,1006.85
2018-11-10T04:04:09.940Z,1006.83
2018-11-10T04:05:19.895Z,1006.8
2018-11-10T04:06:29.595Z,1006.79
2018-11-10T04:07:39.543Z,1006.83
2018-11-10T04:08:48.981Z,1006.78
2018-11-10T04:09:58.667Z,1006.81
2018-11-10T04:11:08.627Z,1006.84
2018-11-10T04:12:18.323Z,1006.78
2018-11-10T04:13:28.312Z,1006.86
2018-11-10T04:14:38.252Z,1006.84
2018-11-10T04:15:47.685Z,1006.82
2018-11-10T04:16:57.633Z,1006.77
2018-11-10T04:18:07.052Z,1006.74
2018-11-10T04:19:16.503Z,1006.73
2018-11-10T04:20:26.444Z,1006.69
2018-11-10T04:21:36.146Z,1006.72
2018-11-10T04:22:46.092Z,1006.7
2018-11-10T04:23:56.032Z,1006.68
2018-11-10T04:25:05.726Z,1006.69
2018-11-10T04:26:15.673Z,1006.68
2018-11-10T04:27:25.358Z,1006.69
2018-11-10T04:28:35.320Z,1006.69
2018-11-10T04:29:44.749Z,1006.7
2018-11-10T04:30:54.703Z,1006.76
2018-11-10T04:32:04.659Z,1006.71
2018-11-10T04:33:14.613Z,1006.7
2018-11-10T04:34:24.552Z,1006.7
2018-11-10T04:35:33.739Z,1006.65
2018-11-10T04:36:43.685Z,1006.62
2018-11-10T04:37:53.404Z,1006.62
2018-11-10T04:39:02.818Z,1006.6
2018-11-10T04:40:12.762Z,1006.59
2018-11-10T04:41:22.706Z,1006.59
2018-11-10T04:42:32.392Z,1006.6
2018-11-10T04:43:42.167Z,1006.54
2018-11-10T04:44:52.112Z,1006.48
2018-11-10T04:46:01.558Z,1006.53
2018-11-10T04:47:10.981Z,1006.47
2018-11-10T04:48:20.944Z,1006.49
2018-11-10T04:49:30.664Z,1006.41
2018-11-10T04:50:40.527Z,1006.41
2018-11-10T04:51:49.950Z,1006.36
2018-11-10T04:52:59.370Z,1006.34
2018-11-10T04:54:09.068Z,1006.34
2018-11-10T04:55:18.500Z,1006.29
2018-11-10T04:56:28.179Z,1006.32
2018-11-10T04:57:37.609Z,1006.3
2018-11-10T04:58:47.541Z,1006.33
2018-11-10T04:59:56.968Z,1006.3
2018-11-10T05:01:06.657Z,1006.32
2018-11-10T05:02:16.148Z,1006.34
2018-11-10T05:03:25.581Z,1006.31
2018-11-10T05:04:35.014Z,1006.3
2018-11-10T05:05:44.427Z,1006.31
2018-11-10T05:06:53.855Z,1006.28
2018-11-10T05:08:03.820Z,1006.25
2018-11-10T05:09:13.774Z,1006.29
2018-11-10T05:10:23.722Z,1006.34
2018-11-10T05:11:33.659Z,1006.29
2018-11-10T05:12:43.611Z,1006.38
2018-11-10T05:13:53.298Z,1006.36
2018-11-10T05:15:03.028Z,1006.31
2018-11-10T05:16:12.978Z,1006.32
2018-11-10T05:17:22.934Z,1006.35
2018-11-10T05:18:32.616Z,1006.38
2018-11-10T05:19:42.554Z,1006.35
2018-11-10T05:20:52.487Z,1006.37
2018-11-10T05:22:02.433Z,1006.32
2018-11-10T05:23:12.116Z,1006.34
2018-11-10T05:24:22.039Z,1006.36
2018-11-10T05:25:31.988Z,1006.39
2018-11-10T05:26:41.686Z,1006.37
2018-11-10T05:27:51.366Z,1006.38
2018-11-10T05:29:01.054Z,1006.39
2018-11-10T05:30:11.010Z,1006.38
2018-11-10T05:31:20.530Z,1006.37
2018-11-10T05:32:30.302Z,1006.38
2018-11-10T05:33:39.994Z,1006.34
2018-11-10T05:34:49.171Z,1006.37
2018-11-10T05:35:59.109Z,1006.4
2018-11-10T05:37:08.802Z,1006.38
2018-11-10T05:38:18.485Z,1006.38
2018-11-10T05:39:28.183Z,1006.39
2018-11-10T05:40:37.870Z,1006.4
2018-11-10T05:41:47.544Z,1006.38
2018-11-10T05:42:57.495Z,1006.4
2018-11-10T05:44:06.953Z,1006.35
2018-11-10T05:45:16.382Z,1006.39
2018-11-10T05:46:26.329Z,1006.38
2018-11-10T05:47:36.013Z,1006.4
2018-11-10T05:48:45.958Z,1006.44
2018-11-10T05:49:55.903Z,1006.47
2018-11-10T05:51:05.583Z,1006.39
2018-11-10T05:52:15.524Z,1006.41
2018-11-10T05:53:25.205Z,1006.48
2018-11-10T05:54:34.910Z,1006.44
2018-11-10T05:55:44.605Z,1006.44
2018-11-10T05:56:54.553Z,1006.41
2018-11-10T05:58:04.727Z,1006.41
2018-11-10T05:59:14.414Z,1006.41
2018-11-10T06:00:23.842Z,1006.41
2018-11-10T06:01:33.528Z,1006.42
2018-11-10T06:02:42.685Z,1006.39
2018-11-10T06:03:52.375Z,1006.43
2018-11-10T06:05:02.323Z,1006.49
2018-11-10T06:06:12.016Z,1006.43
2018-11-10T06:07:21.695Z,1006.43
2018-11-10T06:08:31.649Z,1006.43
2018-11-10T06:09:41.198Z,1006.43
2018-11-10T06:10:51.943Z,1006.39
2018-11-10T06:12:01.642Z,1006.44
2018-11-10T06:13:11.617Z,1006.36
2018-11-10T06:14:21.041Z,1006.34
2018-11-10T06:15:30.745Z,1006.36
2018-11-10T06:16:40.439Z,1006.25
2018-11-10T06:17:50.389Z,1006.27
2018-11-10T06:19:00.497Z,1006.28
2018-11-10T06:20:10.270Z,1006.31
2018-11-10T06:21:19.701Z,1006.31
2018-11-10T06:22:29.371Z,1006.36
2018-11-10T06:23:38.552Z,1006.45
2018-11-10T06:24:48.524Z,1006.48
2018-11-10T06:25:58.524Z,1006.55
2018-11-10T06:27:08.208Z,1006.57
2018-11-10T06:28:18.163Z,1006.58
2018-11-10T06:29:28.104Z,1006.55
2018-11-10T06:30:37.529Z,1006.55
2018-11-10T06:31:47.468Z,1006.48
2018-11-10T06:32:57.146Z,1006.55
2018-11-10T06:34:06.832Z,1006.48
2018-11-10T06:35:16.802Z,1006.46
2018-11-10T06:36:26.785Z,1006.41
2018-11-10T06:37:36.210Z,1006.42
2018-11-10T06:38:46.152Z,1006.4
2018-11-10T06:39:56.082Z,1006.4
2018-11-10T06:41:05.529Z,1006.34
2018-11-10T06:42:15.088Z,1006.29
2018-11-10T06:43:25.033Z,1006.28
2018-11-10T06:44:34.717Z,1006.25
2018-11-10T06:45:44.412Z,1006.24
2018-11-10T06:46:54.409Z,1006.24
2018-11-10T06:48:04.386Z,1006.23
2018-11-10T06:49:14.324Z,1006.16
2018-11-10T06:50:24.014Z,1006.18
2018-11-10T06:51:33.945Z,1006.18
2018-11-10T06:52:43.205Z,1006.23
2018-11-10T06:53:53.426Z,1006.21
2018-11-10T06:55:02.858Z,1006.21
2018-11-10T06:56:12.576Z,1006.19
2018-11-10T06:57:22.264Z,1006.19
2018-11-10T06:58:32.226Z,1006.21
2018-11-10T06:59:41.407Z,1006.19
2018-11-10T07:00:51.344Z,1006.16
2018-11-10T07:02:01.279Z,1006.14
2018-11-10T07:03:11.045Z,1006.16
2018-11-10T07:04:21.363Z,1006.17
2018-11-10T07:05:31.057Z,1006.13
2018-11-10T07:06:40.751Z,1006.16
2018-11-10T07:07:50.425Z,1006.12
2018-11-10T07:09:00.119Z,1006.23
2018-11-10T07:10:09.806Z,1006.24
2018-11-10T07:11:19.785Z,1006.24
2018-11-10T07:12:29.476Z,1006.27
2018-11-10T07:13:39.431Z,1006.28
2018-11-10T07:14:49.605Z,1006.17
2018-11-10T07:15:59.298Z,1006.21
2018-11-10T07:17:08.735Z,1006.22
2018-11-10T07:18:18.460Z,1006.23
2018-11-10T07:19:28.163Z,1006.22
2018-11-10T07:20:38.111Z,1006.24
2018-11-10T07:21:47.559Z,1006.28
2018-11-10T07:22:56.980Z,1006.34
2018-11-10T07:24:06.935Z,1006.33
2018-11-10T07:25:16.382Z,1006.35
2018-11-10T07:26:26.396Z,1006.35
2018-11-10T07:27:36.405Z,1006.36
2018-11-10T07:28:45.831Z,1006.35
2018-11-10T07:29:55.513Z,1006.31
2018-11-10T07:31:05.202Z,1006.36
2018-11-10T07:32:15.141Z,1006.36
2018-11-10T07:33:24.835Z,1006.41
2018-11-10T07:34:34.540Z,1006.39
2018-11-10T07:35:44.486Z,1006.38
2018-11-10T07:36:53.909Z,1006.43
2018-11-10T07:38:03.862Z,1006.37
2018-11-10T07:39:13.801Z,1006.41
2018-11-10T07:40:23.750Z,1006.37
2018-11-10T07:41:33.436Z,1006.35
2018-11-10T07:42:43.121Z,1006.24
2018-11-10T07:43:52.326Z,1006.27
2018-11-10T07:45:02.020Z,1006.26
2018-11-10T07:46:11.740Z,1006.23
2018-11-10T07:47:21.737Z,1006.18
2018-11-10T07:48:31.428Z,1006.25
2018-11-10T07:49:40.853Z,1006.22
2018-11-10T07:50:50.807Z,1006.23
2018-11-10T07:52:00.515Z,1006.22
2018-11-10T07:53:10.472Z,1006.21
2018-11-10T07:54:20.168Z,1006.2
2018-11-10T07:55:30.054Z,1006.23
2018-11-10T07:56:39.483Z,1006.23
2018-11-10T07:57:49.430Z,1006.21
2018-11-10T07:58:59.376Z,1006.22
2018-11-10T08:00:09.326Z,1006.22
2018-11-10T08:01:19.011Z,1006.24
2018-11-10T08:02:28.974Z,1006.24
2018-11-10T08:03:38.655Z,1006.27
2018-11-10T08:04:48.105Z,1006.25
2018-11-10T08:05:57.824Z,1006.29
2018-11-10T08:07:07.776Z,1006.33
2018-11-10T08:08:17.195Z,1006.29
2018-11-10T08:09:26.875Z,1006.32
2018-11-10T08:10:36.311Z,1006.34
2018-11-10T08:11:46.031Z,1006.36
2018-11-10T08:12:56.012Z,1006.31
2018-11-10T08:14:05.956Z,1006.35
2018-11-10T08:15:15.389Z,1006.27
2018-11-10T08:16:25.095Z,1006.25
2018-11-10T08:17:34.539Z,1006.3
2018-11-10T08:18:44.309Z,1006.3
2018-11-10T08:19:54.292Z,1006.27
2018-11-10T08:21:03.991Z,1006.27
2018-11-10T08:22:13.705Z,1006.24
2018-11-10T08:23:23.652Z,1006.25
2018-11-10T08:24:33.337Z,1006.24
2018-11-10T08:25:42.509Z,1006.27
2018-11-10T08:26:52.213Z,1006.22
2018-11-10T08:28:02.182Z,1006.23
2018-11-10T08:29:12.145Z,1006.25
2018-11-10T08:30:21.584Z,1006.27
2018-11-10T08:31:31.536Z,1006.17
2018-11-10T08:32:41.505Z,1006.19
2018-11-10T08:33:51.453Z,1006.21
2018-11-10T08:35:01.143Z,1006.18
2018-11-10T08:36:10.569Z,1006.22
2018-11-10T08:37:19.984Z,1006.18
2018-11-10T08:38:29.914Z,1006.2
2018-11-10T08:39:39.621Z,1006.18
2018-11-10T08:40:49.334Z,1006.13
2018-11-10T08:41:59.296Z,1006.18
2018-11-10T08:43:08.751Z,1006.16
2018-11-10T08:44:18.184Z,1006.2
2018-11-10T08:45:28.138Z,1006.22
2018-11-10T08:46:38.087Z,1006.22
2018-11-10T08:47:48.026Z,1006.25
2018-11-10T08:48:58.049Z,1006.25
2018-11-10T08:50:07.894Z,1006.18
2018-11-10T08:51:17.315Z,1006.21
2018-11-10T08:52:26.739Z,1006.19
2018-11-10T08:53:36.160Z,1006.13
2018-11-10T08:54:46.125Z,1006.15
2018-11-10T08:55:55.837Z,1006.07
2018-11-10T08:57:05.010Z,1006.11
2018-11-10T08:58:14.701Z,1006.09
2018-11-10T08:59:24.381Z,1006.08
2018-11-10T09:00:34.069Z,1006.04
2018-11-10T09:01:43.762Z,1006.05
2018-11-10T09:02:53.719Z,1006.07
2018-11-10T09:04:03.159Z,1006.12
2018-11-10T09:05:12.839Z,1006.14
2018-11-10T09:06:22.517Z,1006.11
2018-11-10T09:07:32.471Z,1006.18
2018-11-10T09:08:42.161Z,1006.17
2018-11-10T09:09:51.882Z,1006.14
2018-11-10T09:11:02.423Z,1006.18
2018-11-10T09:12:12.381Z,1006.13
2018-11-10T09:13:22.343Z,1006.1
2018-11-10T09:14:31.781Z,1006.09
2018-11-10T09:15:41.203Z,1006.05
2018-11-10T09:16:50.643Z,1006.03
2018-11-10T09:18:00.061Z,1006.02
2018-11-10T09:19:09.496Z,1005.99
2018-11-10T09:20:19.439Z,1005.98
2018-11-10T09:21:29.261Z,1006.04
2018-11-10T09:22:39.056Z,1006.04
2018-11-10T09:23:48.750Z,1006.01
2018-11-10T09:24:58.694Z,1006.05
2018-11-10T09:26:08.117Z,1006.08
2018-11-10T09:27:17.552Z,1006.07
2018-11-10T09:28:27.535Z,1006.11
2018-11-10T09:29:37.225Z,1006.1
2018-11-10T09:30:46.949Z,1006.11
2018-11-10T09:31:56.695Z,1006.11
2018-11-10T09:33:06.395Z,1006.08
2018-11-10T09:34:16.083Z,1006.07
2018-11-10T09:35:25.523Z,1006.11
2018-11-10T09:36:35.641Z,1006.05
2018-11-10T09:37:45.431Z,1006.03
2018-11-10T09:38:55.114Z,1006.06
2018-11-10T09:40:04.804Z,1006.08
2018-11-10T09:41:14.496Z,1006.01
2018-11-10T09:42:24.117Z,1005.97
2018-11-10T09:43:35.533Z,1005.98
2018-11-10T09:44:44.989Z,1005.94
2018-11-10T09:45:54.933Z,1005.97
2018-11-10T09:47:04.890Z,1005.94
2018-11-10T09:48:14.317Z,1005.94
2018-11-10T09:49:23.772Z,1005.95
2018-11-10T09:50:33.745Z,1005.9
2018-11-10T09:51:43.289Z,1005.95
2018-11-10T09:52:53.245Z,1005.93
2018-11-10T09:54:02.960Z,1005.95
2018-11-10T09:55:12.394Z,1005.94
2018-11-10T09:56:22.345Z,1005.97
2018-11-10T09:57:32.299Z,1005.98
2018-11-10T09:58:42.004Z,1006.05
2018-11-10T09:59:51.684Z,1006.05
2018-11-10T10:01:01.156Z,1006.08
2018-11-10T10:02:12.025Z,1006.09
2018-11-10T10:03:24.334Z,1006.08
2018-11-10T10:04:34.283Z,1006.08
2018-11-10T10:05:43.449Z,1006.09
2018-11-10T10:06:53.438Z,1006.01
2018-11-10T10:08:02.882Z,1006.03
2018-11-10T10:09:12.573Z,1006
2018-11-10T10:10:22.013Z,1005.9
2018-11-10T10:11:31.454Z,1005.95
2018-11-10T10:12:41.428Z,1005.92
2018-11-10T10:13:51.136Z,1005.95
2018-11-10T10:15:00.825Z,1005.92
2018-11-10T10:16:10.416Z,1005.93
2018-11-10T10:17:20.388Z,1005.93
2018-11-10T10:18:30.062Z,1005.87
2018-11-10T10:19:39.775Z,1005.84
2018-11-10T10:20:49.231Z,1005.85
2018-11-10T10:21:59.061Z,1005.83
2018-11-10T10:23:08.748Z,1005.86
2018-11-10T10:24:18.474Z,1005.81
2018-11-10T10:25:28.175Z,1005.81
2018-11-10T10:26:38.116Z,1005.78
2018-11-10T10:27:47.814Z,1005.78
2018-11-10T10:28:57.561Z,1005.72
2018-11-10T10:30:08.473Z,1005.73
2018-11-10T10:31:18.205Z,1005.67
2018-11-10T10:32:28.157Z,1005.71
2018-11-10T10:33:37.865Z,1005.65
2018-11-10T10:34:48.037Z,1005.64
2018-11-10T10:35:57.879Z,1005.61
2018-11-10T10:37:07.880Z,1005.55
2018-11-10T10:38:17.584Z,1005.55
2018-11-10T10:39:27.343Z,1005.52
2018-11-10T10:40:37.198Z,1005.5
2018-11-10T10:41:47.163Z,1005.47
2018-11-10T10:42:57.150Z,1005.48
2018-11-10T10:44:07.815Z,1005.48
2018-11-10T10:45:17.507Z,1005.49
2018-11-10T10:46:27.468Z,1005.42
2018-11-10T10:47:37.182Z,1005.43
2018-11-10T10:48:47.296Z,1005.42
2018-11-10T10:49:57.308Z,1005.42
2018-11-10T10:51:07.009Z,1005.38
2018-11-10T10:52:16.182Z,1005.36
2018-11-10T10:53:26.148Z,1005.34
2018-11-10T10:54:35.845Z,1005.36
2018-11-10T10:55:45.639Z,1005.34
2018-11-10T10:56:55.907Z,1005.32
2018-11-10T10:58:06.495Z,1005.39
2018-11-10T10:59:15.672Z,1005.38
2018-11-10T11:00:25.626Z,1005.45
2018-11-10T11:01:35.592Z,1005.45
2018-11-10T11:02:45.555Z,1005.43
2018-11-10T11:03:56.063Z,1005.48
2018-11-10T11:05:05.777Z,1005.52
2018-11-10T11:06:15.487Z,1005.5
2018-11-10T11:07:24.936Z,1005.57
2018-11-10T11:08:34.668Z,1005.55
2018-11-10T11:09:44.463Z,1005.59
2018-11-10T11:10:54.258Z,1005.57
2018-11-10T11:12:04.225Z,1005.6
2018-11-10T11:13:14.160Z,1005.64
2018-11-10T11:14:23.888Z,1005.7
2018-11-10T11:15:33.545Z,1005.7
2018-11-10T11:16:43.957Z,1005.72
2018-11-10T11:17:53.928Z,1005.74
2018-11-10T11:19:03.900Z,1005.73
2018-11-10T11:20:13.579Z,1005.75
2018-11-10T11:21:23.292Z,1005.77
2018-11-10T11:22:33.240Z,1005.75
2018-11-10T11:23:42.932Z,1005.75
2018-11-10T11:24:52.606Z,1005.7
2018-11-10T11:26:02.314Z,1005.71
2018-11-10T11:27:12.276Z,1005.72
2018-11-10T11:28:21.705Z,1005.68
2018-11-10T11:29:31.447Z,1005.67
2018-11-10T11:30:41.712Z,1005.67
2018-11-10T11:31:51.672Z,1005.65
2018-11-10T11:33:01.638Z,1005.69
2018-11-10T11:34:11.604Z,1005.69
2018-11-10T11:35:21.123Z,1005.63
2018-11-10T11:36:31.481Z,1005.57
2018-11-10T11:37:41.187Z,1005.52
2018-11-10T11:38:50.888Z,1005.46
2018-11-10T11:40:00.596Z,1005.44
2018-11-10T11:41:10.352Z,1005.49
2018-11-10T11:42:21.005Z,1005.45
2018-11-10T11:43:30.433Z,1005.52
2018-11-10T11:44:40.183Z,1005.5
2018-11-10T11:45:50.125Z,1005.46
2018-11-10T11:47:00.100Z,1005.49
2018-11-10T11:48:10.046Z,1005.43
2018-11-10T11:49:19.744Z,1005.44
2018-11-10T11:50:29.696Z,1005.45
2018-11-10T11:51:39.384Z,1005.42
2018-11-10T11:52:49.345Z,1005.39
2018-11-10T11:53:59.325Z,1005.36
2018-11-10T11:55:09.287Z,1005.39
2018-11-10T11:56:19.001Z,1005.35
2018-11-10T11:57:28.725Z,1005.33
2018-11-10T11:58:38.108Z,1005.28
2018-11-10T11:59:47.563Z,1005.29
2018-11-10T12:00:57.505Z,1005.29
2018-11-10T12:02:07.262Z,1005.31
2018-11-10T12:03:16.934Z,1005.27
2018-11-10T12:04:26.742Z,1005.34
2018-11-10T12:05:37.305Z,1005.3
2018-11-10T12:06:47.270Z,1005.27
2018-11-10T12:07:56.726Z,1005.3
2018-11-10T12:09:06.428Z,1005.35
2018-11-10T12:10:16.122Z,1005.28
2018-11-10T12:11:25.560Z,1005.29
2018-11-10T12:12:35.256Z,1005.27
2018-11-10T12:13:45.219Z,1005.26
2018-11-10T12:14:54.671Z,1005.2
2018-11-10T12:16:04.397Z,1005.25
2018-11-10T12:17:14.086Z,1005.23
2018-11-10T12:18:23.808Z,1005.2
2018-11-10T12:19:33.740Z,1005.19
2018-11-10T12:20:43.229Z,1005.19
2018-11-10T12:21:53.072Z,1005.15
2018-11-10T12:23:03.055Z,1005.15
2018-11-10T12:24:12.761Z,1005.14
2018-11-10T12:25:22.712Z,1005.12
2018-11-10T12:26:32.422Z,1005.09
2018-11-10T12:27:42.285Z,1005.1
2018-11-10T12:28:52.254Z,1005.12
2018-11-10T12:30:01.703Z,1005.06
2018-11-10T12:31:11.655Z,1005.03
2018-11-10T12:32:21.139Z,1005.01
2018-11-10T12:33:30.630Z,1005.09
2018-11-10T12:34:40.351Z,1005.07
2018-11-10T12:35:50.313Z,1005.07
2018-11-10T12:37:00.029Z,1005.12
2018-11-10T12:38:09.987Z,1005.15
2018-11-10T12:39:19.676Z,1005.22
2018-11-10T12:40:29.360Z,1005.21
2018-11-10T12:41:39.349Z,1005.21
2018-11-10T12:42:49.048Z,1005.2
2018-11-10T12:43:59.000Z,1005.18
2018-11-10T12:45:08.687Z,1005.17
2018-11-10T12:46:18.667Z,1005.16
2018-11-10T12:47:28.837Z,1005.16
2018-11-10T12:48:38.817Z,1005.17
2018-11-10T12:49:48.244Z,1005.16
2018-11-10T12:50:57.961Z,1005.17
2018-11-10T12:52:07.746Z,1005.25
2018-11-10T12:53:17.364Z,1005.27
2018-11-10T12:54:27.327Z,1005.34
2018-11-10T12:55:37.054Z,1005.3
2018-11-10T12:56:46.481Z,1005.29
2018-11-10T12:57:56.222Z,1005.22
2018-11-10T12:59:06.047Z,1005.2
2018-11-10T13:00:16.057Z,1005.24
2018-11-10T13:01:26.032Z,1005.23
2018-11-10T13:02:36.061Z,1005.2
2018-11-10T13:03:45.811Z,1005.16
2018-11-10T13:04:55.528Z,1005.18
2018-11-10T13:06:05.229Z,1005.19
2018-11-10T13:07:15.198Z,1005.16
2018-11-10T13:08:24.975Z,1005.14
2018-11-10T13:09:34.678Z,1005.11
2018-11-10T13:10:44.675Z,1005.12
2018-11-10T13:11:55.070Z,1005.11
2018-11-10T13:13:05.226Z,1005.13
2018-11-10T13:14:15.196Z,1005.08
2018-11-10T13:15:24.240Z,1005.11
2018-11-10T13:16:33.983Z,1005.11
2018-11-10T13:17:44.403Z,1005.03
2018-11-10T13:18:53.943Z,1005.02
2018-11-10T13:20:03.642Z,1005.02
2018-11-10T13:21:13.350Z,1004.94
2018-11-10T13:22:23.300Z,1005.02
2018-11-10T13:23:33.243Z,1005.07
2018-11-10T13:24:42.689Z,1005.08
2018-11-10T13:25:52.417Z,1005.02
2018-11-10T13:27:02.362Z,1005.08
2018-11-10T13:28:12.055Z,1005.05
2018-11-10T13:29:21.230Z,1005.01
2018-11-10T13:30:31.186Z,1005.04
2018-11-10T13:31:41.037Z,1005.05
2018-11-10T13:32:51.449Z,1005
2018-11-10T13:34:01.407Z,1005.04
2018-11-10T13:35:11.110Z,1005.01
2018-11-10T13:36:20.557Z,1004.98
2018-11-10T13:37:30.263Z,1004.92
2018-11-10T13:38:39.999Z,1004.85
2018-11-10T13:39:50.007Z,1004.8
2018-11-10T13:40:59.179Z,1004.86
2018-11-10T13:42:08.364Z,1004.86
2018-11-10T13:43:17.895Z,1004.81
2018-11-10T13:44:27.932Z,1004.82
2018-11-10T13:45:37.894Z,1004.74
2018-11-10T13:46:47.588Z,1004.75
2018-11-10T13:47:57.289Z,1004.72
2018-11-10T13:49:07.241Z,1004.7
2018-11-10T13:50:16.937Z,1004.71
2018-11-10T13:51:26.911Z,1004.67
2018-11-10T13:52:37.222Z,1004.61
2018-11-10T13:53:49.464Z,1004.61
2018-11-10T13:54:59.441Z,1004.61
2018-11-10T13:56:09.136Z,1004.6
2018-11-10T13:57:19.103Z,1004.59
2018-11-10T13:58:28.787Z,1004.61
2018-11-10T13:59:38.231Z,1004.6
2018-11-10T14:00:47.661Z,1004.65
2018-11-10T14:01:57.351Z,1004.62
2018-11-10T14:03:07.081Z,1004.6
2018-11-10T14:04:16.263Z,1004.6
2018-11-10T14:05:25.750Z,1004.56
2018-11-10T14:06:35.468Z,1004.53